Aurora, Colorado
Current Conditions -  °F | °C
As of 9:58 AM on Sunday 23 Nov 2014 (Local Time) from KBKF Reporting Station
Broken Clouds Broken Clouds  
Wind Chill:   Ceiling: 20000
Heat Index:   Visibility: 10mi
Dew Point: -6°   Wind: 2mph
Humidity: 57%   Direction: 30°NNE
Pressure: 29.81"   Gusts: NA
Location:  39.69°N, 104.86°W
Report Text: KBKF 231658Z 03002KT 10SM FEW060 SCT100 BKN200 02/M06 A2981 RMK AO2A SLP084 T00171059
Loading
Personal Weather Stations






























Interactive Weather Map New forecast layout! Learn more

10-Day Weather Forecast

Advertisements
Track Severe Weather on mobile